sensor_id;sensor_type;location;lat;lon;timestamp;P1;durP1;ratioP1;P2;durP2;ratioP2
75516;SDS011;64097;52.548;13.406;2024-02-28T06:02:33;5.30;;;4.07;;
75516;SDS011;64097;52.548;13.406;2024-02-28T06:04:59;5.15;;;4.10;;
75516;SDS011;64097;52.548;13.406;2024-02-28T06:07:25;4.20;;;3.67;;
75516;SDS011;64097;52.548;13.406;2024-02-28T06:09:51;3.97;;;3.40;;
75516;SDS011;64097;52.548;13.406;2024-02-28T06:12:16;3.97;;;3.58;;
75516;SDS011;64097;52.548;13.406;2024-02-28T06:14:42;4.82;;;4.10;;
75516;SDS011;64097;52.548;13.406;2024-02-28T06:17:08;4.10;;;3.70;;
75516;SDS011;64097;52.548;13.406;2024-02-28T06:19:33;4.75;;;4.13;;
75516;SDS011;64097;52.548;13.406;2024-02-28T06:21:59;4.28;;;3.88;;
75516;SDS011;64097;52.548;13.406;2024-02-28T06:24:25;4.93;;;3.65;;
75516;SDS011;64097;52.548;13.406;2024-02-28T06:26:50;5.00;;;4.15;;
75516;SDS011;64097;52.548;13.406;2024-02-28T06:29:16;5.95;;;4.70;;
75516;SDS011;64097;52.548;13.406;2024-02-28T06:31:42;5.47;;;4.47;;
75516;SDS011;64097;52.548;13.406;2024-02-28T06:34:08;6.65;;;5.45;;
75516;SDS011;64097;52.548;13.406;2024-02-28T06:36:33;5.82;;;5.22;;
75516;SDS011;64097;52.548;13.406;2024-02-28T06:38:59;6.70;;;5.30;;
75516;SDS011;64097;52.548;13.406;2024-02-28T06:41:25;6.03;;;4.63;;
75516;SDS011;64097;52.548;13.406;2024-02-28T06:43:51;5.97;;;4.88;;
75516;SDS011;64097;52.548;13.406;2024-02-28T06:46:16;7.38;;;5.13;;
75516;SDS011;64097;52.548;13.406;2024-02-28T06:48:42;7.50;;;5.75;;
75516;SDS011;64097;52.548;13.406;2024-02-28T06:51:08;6.80;;;5.85;;
75516;SDS011;64097;52.548;13.406;2024-02-28T06:53:34;6.80;;;5.30;;
75516;SDS011;64097;52.548;13.406;2024-02-28T06:56:02;9.10;;;6.25;;
75516;SDS011;64097;52.548;13.406;2024-02-28T06:58:28;7.15;;;5.85;;
75516;SDS011;64097;52.548;13.406;2024-02-28T07:00:55;6.72;;;5.60;;
75516;SDS011;64097;52.548;13.406;2024-02-28T07:03:20;7.00;;;5.75;;
75516;SDS011;64097;52.548;13.406;2024-02-28T07:05:46;6.78;;;6.00;;
75516;SDS011;64097;52.548;13.406;2024-02-28T07:08:12;6.95;;;6.25;;
75516;SDS011;64097;52.548;13.406;2024-02-28T07:10:38;7.40;;;6.00;;
75516;SDS011;64097;52.548;13.406;2024-02-28T07:13:08;8.10;;;6.93;;
75516;SDS011;64097;52.548;13.406;2024-02-28T07:15:34;7.88;;;6.30;;
75516;SDS011;64097;52.548;13.406;2024-02-28T07:18:00;8.63;;;6.85;;
75516;SDS011;64097;52.548;13.406;2024-02-28T07:20:25;7.05;;;6.20;;
75516;SDS011;64097;52.548;13.406;2024-02-28T07:22:51;7.45;;;6.45;;
75516;SDS011;64097;52.548;13.406;2024-02-28T07:25:18;6.68;;;5.60;;
75516;SDS011;64097;52.548;13.406;2024-02-28T07:27:45;6.78;;;5.72;;
75516;SDS011;64097;52.548;13.406;2024-02-28T07:30:11;5.85;;;5.00;;
75516;SDS011;64097;52.548;13.406;2024-02-28T07:32:37;6.95;;;5.80;;
75516;SDS011;64097;52.548;13.406;2024-02-28T07:35:03;7.20;;;5.72;;
75516;SDS011;64097;52.548;13.406;2024-02-28T07:37:29;6.80;;;5.85;;
75516;SDS011;64097;52.548;13.406;2024-02-28T07:39:55;6.00;;;5.30;;
75516;SDS011;64097;52.548;13.406;2024-02-28T07:42:21;6.10;;;5.32;;
75516;SDS011;64097;52.548;13.406;2024-02-28T07:44:46;6.10;;;5.10;;
75516;SDS011;64097;52.548;13.406;2024-02-28T07:47:12;5.85;;;4.70;;
75516;SDS011;64097;52.548;13.406;2024-02-28T07:49:39;6.65;;;5.20;;
75516;SDS011;64097;52.548;13.406;2024-02-28T07:52:05;5.00;;;4.20;;
75516;SDS011;64097;52.548;13.406;2024-02-28T07:54:31;4.75;;;4.10;;
75516;SDS011;64097;52.548;13.406;2024-02-28T07:56:56;6.05;;;5.03;;
75516;SDS011;64097;52.548;13.406;2024-02-28T07:59:22;5.75;;;5.07;;
75516;SDS011;64097;52.548;13.406;2024-02-28T08:01:48;5.82;;;4.70;;
75516;SDS011;64097;52.548;13.406;2024-02-28T08:04:13;5.05;;;4.55;;
75516;SDS011;64097;52.548;13.406;2024-02-28T08:06:39;4.70;;;4.20;;
75516;SDS011;64097;52.548;13.406;2024-02-28T08:09:05;4.55;;;4.05;;
75516;SDS011;64097;52.548;13.406;2024-02-28T08:11:32;5.15;;;4.30;;
75516;SDS011;64097;52.548;13.406;2024-02-28T08:13:58;4.78;;;4.28;;
75516;SDS011;64097;52.548;13.406;2024-02-28T08:16:23;5.95;;;5.28;;
75516;SDS011;64097;52.548;13.406;2024-02-28T08:18:49;5.05;;;4.55;;
75516;SDS011;64097;52.548;13.406;2024-02-28T08:21:15;6.90;;;5.80;;
75516;SDS011;64097;52.548;13.406;2024-02-28T08:23:40;5.45;;;4.82;;
75516;SDS011;64097;52.548;13.406;2024-02-28T08:26:06;6.22;;;5.40;;
75516;SDS011;64097;52.548;13.406;2024-02-28T08:28:32;6.28;;;5.28;;
75516;SDS011;64097;52.548;13.406;2024-02-28T08:30:58;5.47;;;4.97;;
75516;SDS011;64097;52.548;13.406;2024-02-28T08:33:23;4.75;;;4.20;;
75516;SDS011;64097;52.548;13.406;2024-02-28T08:35:49;5.15;;;4.38;;
75516;SDS011;64097;52.548;13.406;2024-02-28T08:38:16;4.57;;;4.03;;
75516;SDS011;64097;52.548;13.406;2024-02-28T08:40:42;4.80;;;3.90;;
75516;SDS011;64097;52.548;13.406;2024-02-28T08:43:09;4.47;;;3.55;;
75516;SDS011;64097;52.548;13.406;2024-02-28T08:45:35;5.90;;;4.32;;
75516;SDS011;64097;52.548;13.406;2024-02-28T08:48:00;6.57;;;3.90;;
75516;SDS011;64097;52.548;13.406;2024-02-28T08:50:26;6.57;;;4.38;;
75516;SDS011;64097;52.548;13.406;2024-02-28T08:52:54;6.70;;;5.10;;
75516;SDS011;64097;52.548;13.406;2024-02-28T08:55:20;6.05;;;4.57;;
75516;SDS011;64097;52.548;13.406;2024-02-28T08:57:48;6.15;;;5.28;;
75516;SDS011;64097;52.548;13.406;2024-02-28T09:00:14;6.30;;;5.10;;
75516;SDS011;64097;52.548;13.406;2024-02-28T09:02:40;8.75;;;6.68;;
75516;SDS011;64097;52.548;13.406;2024-02-28T09:05:06;8.05;;;6.68;;
75516;SDS011;64097;52.548;13.406;2024-02-28T09:07:32;7.78;;;6.40;;
75516;SDS011;64097;52.548;13.406;2024-02-28T09:10:01;7.30;;;6.40;;
75516;SDS011;64097;52.548;13.406;2024-02-28T09:12:28;8.73;;;6.10;;
75516;SDS011;64097;52.548;13.406;2024-02-28T09:14:54;9.60;;;7.68;;
75516;SDS011;64097;52.548;13.406;2024-02-28T09:17:22;8.30;;;6.93;;
75516;SDS011;64097;52.548;13.406;2024-02-28T09:19:48;8.68;;;7.10;;
75516;SDS011;64097;52.548;13.406;2024-02-28T09:22:14;8.45;;;6.57;;
75516;SDS011;64097;52.548;13.406;2024-02-28T09:24:42;6.60;;;5.28;;
75516;SDS011;64097;52.548;13.406;2024-02-28T09:27:07;6.90;;;5.85;;
75516;SDS011;64097;52.548;13.406;2024-02-28T09:29:33;7.15;;;6.30;;
75516;SDS011;64097;52.548;13.406;2024-02-28T09:31:59;9.55;;;7.57;;
75516;SDS011;64097;52.548;13.406;2024-02-28T09:34:24;9.10;;;6.65;;
75516;SDS011;64097;52.548;13.406;2024-02-28T09:36:50;8.20;;;6.28;;
75516;SDS011;64097;52.548;13.406;2024-02-28T09:39:16;8.60;;;7.20;;
75516;SDS011;64097;52.548;13.406;2024-02-28T09:41:42;8.40;;;6.93;;
75516;SDS011;64097;52.548;13.406;2024-02-28T09:44:07;8.90;;;6.88;;
75516;SDS011;64097;52.548;13.406;2024-02-28T09:46:34;9.07;;;7.57;;
75516;SDS011;64097;52.548;13.406;2024-02-28T09:49:06;10.77;;;8.50;;
75516;SDS011;64097;52.548;13.406;2024-02-28T09:51:33;9.98;;;8.15;;
75516;SDS011;64097;52.548;13.406;2024-02-28T09:54:05;10.30;;;8.05;;
75516;SDS011;64097;52.548;13.406;2024-02-28T09:56:31;10.60;;;8.20;;
75516;SDS011;64097;52.548;13.406;2024-02-28T09:58:58;10.65;;;7.78;;
75516;SDS011;64097;52.548;13.406;2024-02-28T10:01:25;11.25;;;8.13;;
75516;SDS011;64097;52.548;13.406;2024-02-28T10:03:51;9.02;;;7.35;;
75516;SDS011;64097;52.548;13.406;2024-02-28T10:06:19;9.63;;;7.57;;
75516;SDS011;64097;52.548;13.406;2024-02-28T10:08:45;10.25;;;8.07;;
75516;SDS011;64097;52.548;13.406;2024-02-28T10:11:23;11.43;;;8.57;;
75516;SDS011;64097;52.548;13.406;2024-02-28T10:13:49;12.00;;;9.20;;
75516;SDS011;64097;52.548;13.406;2024-02-28T10:16:15;11.00;;;8.27;;
75516;SDS011;64097;52.548;13.406;2024-02-28T10:18:44;10.88;;;8.68;;
75516;SDS011;64097;52.548;13.406;2024-02-28T10:21:11;11.32;;;9.10;;
75516;SDS011;64097;52.548;13.406;2024-02-28T10:23:43;10.75;;;8.80;;
75516;SDS011;64097;52.548;13.406;2024-02-28T10:26:10;9.90;;;8.00;;
75516;SDS011;64097;52.548;13.406;2024-02-28T10:28:37;9.68;;;7.70;;
75516;SDS011;64097;52.548;13.406;2024-02-28T10:31:04;9.40;;;7.43;;
75516;SDS011;64097;52.548;13.406;2024-02-28T10:33:30;11.95;;;9.70;;
75516;SDS011;64097;52.548;13.406;2024-02-28T10:35:58;12.48;;;9.73;;
75516;SDS011;64097;52.548;13.406;2024-02-28T10:38:25;13.77;;;10.57;;
75516;SDS011;64097;52.548;13.406;2024-02-28T10:40:52;14.10;;;11.43;;
75516;SDS011;64097;52.548;13.406;2024-02-28T10:43:19;13.25;;;10.30;;
75516;SDS011;64097;52.548;13.406;2024-02-28T10:45:45;11.95;;;10.13;;
75516;SDS011;64097;52.548;13.406;2024-02-28T10:48:13;13.55;;;10.30;;
75516;SDS011;64097;52.548;13.406;2024-02-28T10:50:43;13.43;;;10.82;;
75516;SDS011;64097;52.548;13.406;2024-02-28T10:53:14;12.68;;;10.63;;
75516;SDS011;64097;52.548;13.406;2024-02-28T10:55:43;14.50;;;11.70;;
75516;SDS011;64097;52.548;13.406;2024-02-28T10:58:13;12.98;;;9.98;;
75516;SDS011;64097;52.548;13.406;2024-02-28T11:00:41;13.63;;;10.50;;
75516;SDS011;64097;52.548;13.406;2024-02-28T11:03:09;12.40;;;10.57;;
75516;SDS011;64097;52.548;13.406;2024-02-28T11:05:36;13.75;;;10.68;;
75516;SDS011;64097;52.548;13.406;2024-02-28T11:08:10;14.13;;;11.52;;
75516;SDS011;64097;52.548;13.406;2024-02-28T11:10:43;13.93;;;10.93;;
75516;SDS011;64097;52.548;13.406;2024-02-28T11:13:20;13.85;;;10.90;;
75516;SDS011;64097;52.548;13.406;2024-02-28T11:15:47;13.90;;;11.05;;
75516;SDS011;64097;52.548;13.406;2024-02-28T11:18:12;11.32;;;9.32;;
75516;SDS011;64097;52.548;13.406;2024-02-28T11:20:38;10.65;;;8.85;;
75516;SDS011;64097;52.548;13.406;2024-02-28T11:23:07;12.88;;;10.60;;
75516;SDS011;64097;52.548;13.406;2024-02-28T11:25:34;12.38;;;9.85;;
75516;SDS011;64097;52.548;13.406;2024-02-28T11:28:00;13.48;;;10.75;;
75516;SDS011;64097;52.548;13.406;2024-02-28T11:30:26;12.25;;;9.93;;
75516;SDS011;64097;52.548;13.406;2024-02-28T11:32:52;13.52;;;10.82;;
75516;SDS011;64097;52.548;13.406;2024-02-28T11:35:23;13.52;;;10.52;;
75516;SDS011;64097;52.548;13.406;2024-02-28T11:37:56;13.23;;;10.45;;
75516;SDS011;64097;52.548;13.406;2024-02-28T11:40:23;12.68;;;10.07;;
75516;SDS011;64097;52.548;13.406;2024-02-28T11:42:50;11.60;;;9.23;;
75516;SDS011;64097;52.548;13.406;2024-02-28T11:45:17;13.63;;;9.10;;
75516;SDS011;64097;52.548;13.406;2024-02-28T11:47:42;13.98;;;9.90;;
75516;SDS011;64097;52.548;13.406;2024-02-28T11:50:09;12.40;;;9.52;;
75516;SDS011;64097;52.548;13.406;2024-02-28T11:52:35;11.55;;;9.13;;
75516;SDS011;64097;52.548;13.406;2024-02-28T11:55:01;11.13;;;9.27;;
75516;SDS011;64097;52.548;13.406;2024-02-28T11:57:27;11.25;;;8.77;;
75516;SDS011;64097;52.548;13.406;2024-02-28T11:59:54;10.90;;;8.50;;
75516;SDS011;64097;52.548;13.406;2024-02-28T12:02:22;10.23;;;8.13;;
75516;SDS011;64097;52.548;13.406;2024-02-28T12:04:52;9.60;;;7.75;;
75516;SDS011;64097;52.548;13.406;2024-02-28T12:07:19;9.88;;;8.02;;
75516;SDS011;64097;52.548;13.406;2024-02-28T12:09:46;11.70;;;8.18;;
75516;SDS011;64097;52.548;13.406;2024-02-28T12:12:14;10.30;;;8.57;;
75516;SDS011;64097;52.548;13.406;2024-02-28T12:14:42;9.52;;;7.82;;
75516;SDS011;64097;52.548;13.406;2024-02-28T12:17:08;9.60;;;7.65;;
75516;SDS011;64097;52.548;13.406;2024-02-28T12:19:35;10.70;;;7.95;;
75516;SDS011;64097;52.548;13.406;2024-02-28T12:22:00;8.52;;;6.68;;
75516;SDS011;64097;52.548;13.406;2024-02-28T12:24:26;9.18;;;7.50;;
75516;SDS011;64097;52.548;13.406;2024-02-28T12:26:52;8.13;;;7.15;;
75516;SDS011;64097;52.548;13.406;2024-02-28T12:29:18;8.32;;;7.15;;
75516;SDS011;64097;52.548;13.406;2024-02-28T12:31:43;8.30;;;6.72;;
75516;SDS011;64097;52.548;13.406;2024-02-28T12:34:09;8.43;;;7.10;;
75516;SDS011;64097;52.548;13.406;2024-02-28T12:36:35;8.93;;;7.22;;
75516;SDS011;64097;52.548;13.406;2024-02-28T12:39:01;7.43;;;6.53;;
75516;SDS011;64097;52.548;13.406;2024-02-28T12:41:27;8.27;;;7.03;;
75516;SDS011;64097;52.548;13.406;2024-02-28T12:43:53;7.22;;;6.28;;
75516;SDS011;64097;52.548;13.406;2024-02-28T12:46:19;7.35;;;6.38;;
75516;SDS011;64097;52.548;13.406;2024-02-28T12:48:45;8.30;;;6.97;;
75516;SDS011;64097;52.548;13.406;2024-02-28T12:51:20;8.77;;;7.03;;
75516;SDS011;64097;52.548;13.406;2024-02-28T12:54:00;7.20;;;6.13;;
75516;SDS011;64097;52.548;13.406;2024-02-28T12:56:26;8.27;;;6.78;;
75516;SDS011;64097;52.548;13.406;2024-02-28T12:58:52;9.40;;;7.95;;
75516;SDS011;64097;52.548;13.406;2024-02-28T13:01:18;10.65;;;8.68;;
75516;SDS011;64097;52.548;13.406;2024-02-28T13:03:44;10.30;;;8.50;;
75516;SDS011;64097;52.548;13.406;2024-02-28T13:06:10;9.18;;;8.10;;
75516;SDS011;64097;52.548;13.406;2024-02-28T13:08:35;10.15;;;7.15;;
75516;SDS011;64097;52.548;13.406;2024-02-28T13:11:01;8.50;;;7.22;;
75516;SDS011;64097;52.548;13.406;2024-02-28T13:13:27;10.07;;;7.95;;
75516;SDS011;64097;52.548;13.406;2024-02-28T13:15:53;8.63;;;7.03;;
75516;SDS011;64097;52.548;13.406;2024-02-28T13:18:19;8.85;;;7.20;;
75516;SDS011;64097;52.548;13.406;2024-02-28T13:20:45;9.50;;;7.15;;
75516;SDS011;64097;52.548;13.406;2024-02-28T13:23:11;9.85;;;7.25;;
75516;SDS011;64097;52.548;13.406;2024-02-28T13:25:37;9.27;;;8.00;;
75516;SDS011;64097;52.548;13.406;2024-02-28T13:28:02;9.48;;;7.80;;
75516;SDS011;64097;52.548;13.406;2024-02-28T13:30:28;12.10;;;8.05;;
75516;SDS011;64097;52.548;13.406;2024-02-28T13:32:54;11.82;;;7.15;;
75516;SDS011;64097;52.548;13.406;2024-02-28T13:35:20;9.73;;;7.25;;
75516;SDS011;64097;52.548;13.406;2024-02-28T13:37:46;11.10;;;8.05;;
75516;SDS011;64097;52.548;13.406;2024-02-28T13:40:12;9.23;;;7.40;;
75516;SDS011;64097;52.548;13.406;2024-02-28T13:42:38;9.07;;;6.93;;
75516;SDS011;64097;52.548;13.406;2024-02-28T13:45:04;11.85;;;7.47;;
75516;SDS011;64097;52.548;13.406;2024-02-28T13:47:33;9.93;;;7.72;;
75516;SDS011;64097;52.548;13.406;2024-02-28T13:50:00;16.85;;;9.45;;
75516;SDS011;64097;52.548;13.406;2024-02-28T13:52:26;15.02;;;9.27;;
75516;SDS011;64097;52.548;13.406;2024-02-28T13:54:52;11.60;;;9.25;;
75516;SDS011;64097;52.548;13.406;2024-02-28T13:57:19;12.52;;;10.75;;
75516;SDS011;64097;52.548;13.406;2024-02-28T13:59:45;12.55;;;10.00;;
75516;SDS011;64097;52.548;13.406;2024-02-28T14:08:06;10.25;;;8.65;;
75516;SDS011;64097;52.548;13.406;2024-02-28T14:10:37;11.40;;;9.48;;
75516;SDS011;64097;52.548;13.406;2024-02-28T14:13:03;12.27;;;9.85;;
75516;SDS011;64097;52.548;13.406;2024-02-28T14:15:29;12.45;;;10.52;;
75516;SDS011;64097;52.548;13.406;2024-02-28T14:17:54;13.13;;;10.48;;
75516;SDS011;64097;52.548;13.406;2024-02-28T14:20:20;13.00;;;10.15;;
75516;SDS011;64097;52.548;13.406;2024-02-28T14:22:46;15.30;;;12.52;;
75516;SDS011;64097;52.548;13.406;2024-02-28T14:25:12;14.07;;;11.80;;
75516;SDS011;64097;52.548;13.406;2024-02-28T14:27:40;15.07;;;11.82;;
75516;SDS011;64097;52.548;13.406;2024-02-28T14:30:07;15.68;;;12.90;;
75516;SDS011;64097;52.548;13.406;2024-02-28T14:32:34;14.27;;;11.90;;
75516;SDS011;64097;52.548;13.406;2024-02-28T14:35:04;16.27;;;12.18;;
75516;SDS011;64097;52.548;13.406;2024-02-28T14:37:31;15.15;;;12.05;;
75516;SDS011;64097;52.548;13.406;2024-02-28T14:40:00;14.60;;;12.70;;
75516;SDS011;64097;52.548;13.406;2024-02-28T14:42:29;14.77;;;12.82;;
75516;SDS011;64097;52.548;13.406;2024-02-28T14:44:54;14.52;;;12.50;;
75516;SDS011;64097;52.548;13.406;2024-02-28T14:47:20;12.52;;;11.20;;
75516;SDS011;64097;52.548;13.406;2024-02-28T14:49:46;11.75;;;10.45;;
75516;SDS011;64097;52.548;13.406;2024-02-28T14:52:12;11.73;;;10.43;;
75516;SDS011;64097;52.548;13.406;2024-02-28T14:54:39;12.65;;;11.20;;
75516;SDS011;64097;52.548;13.406;2024-02-28T14:57:05;12.82;;;11.27;;
75516;SDS011;64097;52.548;13.406;2024-02-28T14:59:31;11.95;;;10.68;;
75516;SDS011;64097;52.548;13.406;2024-02-28T15:01:58;14.98;;;12.45;;
75516;SDS011;64097;52.548;13.406;2024-02-28T15:04:24;14.75;;;12.73;;
75516;SDS011;64097;52.548;13.406;2024-02-28T15:06:50;11.93;;;10.40;;
75516;SDS011;64097;52.548;13.406;2024-02-28T15:09:18;12.20;;;10.60;;
75516;SDS011;64097;52.548;13.406;2024-02-28T15:11:46;11.25;;;10.02;;
75516;SDS011;64097;52.548;13.406;2024-02-28T15:14:12;12.02;;;9.65;;
75516;SDS011;64097;52.548;13.406;2024-02-28T15:16:38;10.68;;;8.95;;
75516;SDS011;64097;52.548;13.406;2024-02-28T15:19:04;10.55;;;8.52;;
75516;SDS011;64097;52.548;13.406;2024-02-28T15:21:29;9.43;;;8.27;;
75516;SDS011;64097;52.548;13.406;2024-02-28T15:23:55;11.23;;;8.85;;
75516;SDS011;64097;52.548;13.406;2024-02-28T15:26:21;10.30;;;8.32;;
75516;SDS011;64097;52.548;13.406;2024-02-28T15:28:46;9.48;;;8.48;;
75516;SDS011;64097;52.548;13.406;2024-02-28T15:31:12;9.98;;;7.72;;
75516;SDS011;64097;52.548;13.406;2024-02-28T15:33:38;9.32;;;7.40;;
75516;SDS011;64097;52.548;13.406;2024-02-28T15:36:04;9.57;;;7.32;;
75516;SDS011;64097;52.548;13.406;2024-02-28T15:38:30;8.70;;;7.10;;
75516;SDS011;64097;52.548;13.406;2024-02-28T15:40:55;8.82;;;7.70;;
75516;SDS011;64097;52.548;13.406;2024-02-28T15:43:21;9.43;;;7.70;;
75516;SDS011;64097;52.548;13.406;2024-02-28T15:45:47;8.82;;;7.00;;
75516;SDS011;64097;52.548;13.406;2024-02-28T15:48:14;9.65;;;7.43;;
75516;SDS011;64097;52.548;13.406;2024-02-28T15:50:40;8.85;;;6.88;;
75516;SDS011;64097;52.548;13.406;2024-02-28T15:53:06;8.55;;;7.18;;
75516;SDS011;64097;52.548;13.406;2024-02-28T15:55:32;8.32;;;6.95;;
75516;SDS011;64097;52.548;13.406;2024-02-28T15:57:58;8.63;;;7.00;;
75516;SDS011;64097;52.548;13.406;2024-02-28T16:00:24;9.00;;;7.55;;
75516;SDS011;64097;52.548;13.406;2024-02-28T16:02:50;8.88;;;7.18;;
75516;SDS011;64097;52.548;13.406;2024-02-28T16:05:16;9.88;;;8.10;;
75516;SDS011;64097;52.548;13.406;2024-02-28T16:07:43;8.68;;;7.05;;
75516;SDS011;64097;52.548;13.406;2024-02-28T16:10:09;9.65;;;7.88;;
75516;SDS011;64097;52.548;13.406;2024-02-28T16:12:35;9.65;;;7.70;;
75516;SDS011;64097;52.548;13.406;2024-02-28T16:15:01;10.95;;;8.38;;
75516;SDS011;64097;52.548;13.406;2024-02-28T16:17:28;10.85;;;8.75;;
75516;SDS011;64097;52.548;13.406;2024-02-28T16:19:55;10.23;;;7.88;;
75516;SDS011;64097;52.548;13.406;2024-02-28T16:22:22;10.52;;;7.78;;
75516;SDS011;64097;52.548;13.406;2024-02-28T16:24:48;9.45;;;8.25;;
75516;SDS011;64097;52.548;13.406;2024-02-28T16:27:13;9.65;;;7.68;;
75516;SDS011;64097;52.548;13.406;2024-02-28T16:29:39;9.20;;;7.43;;
75516;SDS011;64097;52.548;13.406;2024-02-28T16:32:06;8.65;;;7.30;;
75516;SDS011;64097;52.548;13.406;2024-02-28T16:34:31;8.23;;;6.85;;
75516;SDS011;64097;52.548;13.406;2024-02-28T16:36:58;9.02;;;7.15;;
75516;SDS011;64097;52.548;13.406;2024-02-28T16:39:26;10.43;;;7.03;;
75516;SDS011;64097;52.548;13.406;2024-02-28T16:41:51;9.40;;;7.50;;
75516;SDS011;64097;52.548;13.406;2024-02-28T16:44:17;9.02;;;6.85;;
75516;SDS011;64097;52.548;13.406;2024-02-28T16:46:43;8.07;;;7.22;;
75516;SDS011;64097;52.548;13.406;2024-02-28T16:49:08;8.80;;;6.88;;
75516;SDS011;64097;52.548;13.406;2024-02-28T16:51:34;9.10;;;7.47;;
75516;SDS011;64097;52.548;13.406;2024-02-28T16:54:00;7.85;;;6.75;;
75516;SDS011;64097;52.548;13.406;2024-02-28T16:56:25;8.50;;;7.03;;
75516;SDS011;64097;52.548;13.406;2024-02-28T16:58:51;8.80;;;6.75;;
75516;SDS011;64097;52.548;13.406;2024-02-28T17:01:17;8.85;;;7.05;;
75516;SDS011;64097;52.548;13.406;2024-02-28T17:03:43;9.10;;;7.40;;
75516;SDS011;64097;52.548;13.406;2024-02-28T17:06:08;9.88;;;7.60;;
75516;SDS011;64097;52.548;13.406;2024-02-28T17:08:34;8.13;;;7.18;;
75516;SDS011;64097;52.548;13.406;2024-02-28T17:11:00;8.90;;;7.22;;
75516;SDS011;64097;52.548;13.406;2024-02-28T17:13:26;9.23;;;7.22;;
75516;SDS011;64097;52.548;13.406;2024-02-28T17:15:52;9.88;;;7.75;;
75516;SDS011;64097;52.548;13.406;2024-02-28T17:18:27;8.93;;;7.50;;
75516;SDS011;64097;52.548;13.406;2024-02-28T17:20:56;10.02;;;7.70;;
75516;SDS011;64097;52.548;13.406;2024-02-28T17:23:22;9.02;;;7.07;;
75516;SDS011;64097;52.548;13.406;2024-02-28T17:25:51;10.00;;;7.95;;
75516;SDS011;64097;52.548;13.406;2024-02-28T17:28:17;10.27;;;7.88;;
75516;SDS011;64097;52.548;13.406;2024-02-28T17:30:43;10.25;;;8.13;;
75516;SDS011;64097;52.548;13.406;2024-02-28T17:33:09;10.68;;;8.57;;
75516;SDS011;64097;52.548;13.406;2024-02-28T17:35:35;9.00;;;7.82;;
75516;SDS011;64097;52.548;13.406;2024-02-28T17:38:00;10.55;;;8.52;;
75516;SDS011;64097;52.548;13.406;2024-02-28T17:40:27;10.93;;;8.68;;
75516;SDS011;64097;52.548;13.406;2024-02-28T17:42:52;10.05;;;8.40;;
75516;SDS011;64097;52.548;13.406;2024-02-28T17:45:18;12.07;;;9.18;;
75516;SDS011;64097;52.548;13.406;2024-02-28T17:47:46;12.88;;;9.90;;
75516;SDS011;64097;52.548;13.406;2024-02-28T17:50:12;11.32;;;9.13;;
75516;SDS011;64097;52.548;13.406;2024-02-28T17:52:40;12.38;;;9.93;;
75516;SDS011;64097;52.548;13.406;2024-02-28T17:55:08;13.30;;;10.13;;
75516;SDS011;64097;52.548;13.406;2024-02-28T17:57:34;11.80;;;9.68;;
75516;SDS011;64097;52.548;13.406;2024-02-28T18:00:03;11.95;;;9.60;;
75516;SDS011;64097;52.548;13.406;2024-02-28T18:02:39;11.38;;;9.40;;
75516;SDS011;64097;52.548;13.406;2024-02-28T18:05:06;11.95;;;9.80;;
75516;SDS011;64097;52.548;13.406;2024-02-28T18:07:35;12.55;;;9.75;;
75516;SDS011;64097;52.548;13.406;2024-02-28T18:10:00;12.35;;;9.52;;
75516;SDS011;64097;52.548;13.406;2024-02-28T18:12:27;13.00;;;10.27;;
75516;SDS011;64097;52.548;13.406;2024-02-28T18:14:53;12.85;;;9.48;;
75516;SDS011;64097;52.548;13.406;2024-02-28T18:17:18;13.73;;;9.93;;
75516;SDS011;64097;52.548;13.406;2024-02-28T18:19:46;14.00;;;10.77;;
75516;SDS011;64097;52.548;13.406;2024-02-28T18:22:11;12.80;;;10.23;;
75516;SDS011;64097;52.548;13.406;2024-02-28T18:24:37;12.57;;;10.40;;
75516;SDS011;64097;52.548;13.406;2024-02-28T18:27:03;13.00;;;10.15;;
75516;SDS011;64097;52.548;13.406;2024-02-28T18:29:34;15.13;;;11.25;;
75516;SDS011;64097;52.548;13.406;2024-02-28T18:32:01;15.90;;;12.13;;
75516;SDS011;64097;52.548;13.406;2024-02-28T18:34:27;16.05;;;11.95;;
75516;SDS011;64097;52.548;13.406;2024-02-28T18:36:54;13.27;;;10.43;;
75516;SDS011;64097;52.548;13.406;2024-02-28T18:39:20;15.57;;;11.93;;
75516;SDS011;64097;52.548;13.406;2024-02-28T18:41:46;14.98;;;11.93;;
75516;SDS011;64097;52.548;13.406;2024-02-28T18:44:13;15.52;;;11.80;;
75516;SDS011;64097;52.548;13.406;2024-02-28T18:46:39;14.50;;;10.80;;
75516;SDS011;64097;52.548;13.406;2024-02-28T18:49:04;14.93;;;11.35;;
75516;SDS011;64097;52.548;13.406;2024-02-28T18:51:32;14.60;;;11.90;;
75516;SDS011;64097;52.548;13.406;2024-02-28T18:53:58;14.13;;;11.52;;
75516;SDS011;64097;52.548;13.406;2024-02-28T18:56:24;14.07;;;11.00;;
75516;SDS011;64097;52.548;13.406;2024-02-28T18:58:50;15.45;;;12.00;;
75516;SDS011;64097;52.548;13.406;2024-02-28T19:01:16;14.90;;;12.00;;
75516;SDS011;64097;52.548;13.406;2024-02-28T19:03:42;17.10;;;12.82;;
75516;SDS011;64097;52.548;13.406;2024-02-28T19:06:08;15.07;;;11.80;;
75516;SDS011;64097;52.548;13.406;2024-02-28T19:08:35;15.18;;;12.00;;
75516;SDS011;64097;52.548;13.406;2024-02-28T19:11:02;15.48;;;12.45;;
75516;SDS011;64097;52.548;13.406;2024-02-28T19:13:28;15.93;;;12.27;;
75516;SDS011;64097;52.548;13.406;2024-02-28T19:15:54;15.60;;;12.30;;
75516;SDS011;64097;52.548;13.406;2024-02-28T19:18:21;15.18;;;12.07;;
75516;SDS011;64097;52.548;13.406;2024-02-28T19:20:47;15.32;;;12.00;;
75516;SDS011;64097;52.548;13.406;2024-02-28T19:23:13;15.85;;;12.27;;
75516;SDS011;64097;52.548;13.406;2024-02-28T19:25:39;17.92;;;13.20;;
75516;SDS011;64097;52.548;13.406;2024-02-28T19:28:05;16.70;;;12.85;;
75516;SDS011;64097;52.548;13.406;2024-02-28T19:30:31;15.70;;;12.50;;
75516;SDS011;64097;52.548;13.406;2024-02-28T19:32:56;16.42;;;13.10;;
75516;SDS011;64097;52.548;13.406;2024-02-28T19:35:22;16.20;;;12.57;;
75516;SDS011;64097;52.548;13.406;2024-02-28T19:37:48;17.13;;;13.27;;
75516;SDS011;64097;52.548;13.406;2024-02-28T19:40:14;17.42;;;13.45;;
75516;SDS011;64097;52.548;13.406;2024-02-28T19:42:40;16.05;;;12.90;;
75516;SDS011;64097;52.548;13.406;2024-02-28T19:45:06;16.10;;;12.93;;
75516;SDS011;64097;52.548;13.406;2024-02-28T19:47:32;18.70;;;14.18;;
75516;SDS011;64097;52.548;13.406;2024-02-28T19:49:58;18.15;;;14.30;;
75516;SDS011;64097;52.548;13.406;2024-02-28T19:52:25;18.95;;;14.57;;
75516;SDS011;64097;52.548;13.406;2024-02-28T19:54:51;16.50;;;13.27;;
75516;SDS011;64097;52.548;13.406;2024-02-28T19:57:17;16.40;;;13.65;;
75516;SDS011;64097;52.548;13.406;2024-02-28T19:59:45;16.70;;;12.90;;
75516;SDS011;64097;52.548;13.406;2024-02-28T20:02:11;16.95;;;12.98;;
75516;SDS011;64097;52.548;13.406;2024-02-28T20:04:37;17.65;;;14.38;;
75516;SDS011;64097;52.548;13.406;2024-02-28T20:07:03;16.58;;;13.05;;
75516;SDS011;64097;52.548;13.406;2024-02-28T20:09:29;15.50;;;12.43;;
75516;SDS011;64097;52.548;13.406;2024-02-28T20:11:59;19.10;;;13.75;;
75516;SDS011;64097;52.548;13.406;2024-02-28T20:14:26;16.80;;;13.30;;
75516;SDS011;64097;52.548;13.406;2024-02-28T20:16:52;17.33;;;12.93;;
75516;SDS011;64097;52.548;13.406;2024-02-28T20:19:18;17.70;;;14.27;;
75516;SDS011;64097;52.548;13.406;2024-02-28T20:21:43;14.93;;;12.63;;
75516;SDS011;64097;52.548;13.406;2024-02-28T20:24:09;17.73;;;14.00;;
75516;SDS011;64097;52.548;13.406;2024-02-28T20:26:35;16.42;;;12.73;;